Time;durP1;ratioP1;P1;durP2;ratioP2;P2;SDS_P1;SDS_P2;PMS_P1;PMS_P2;Temp;Humidity;BMP_temperature;BMP_pressure;BME280_temperature;BME280_humidity;BME280_pressure;Samples;Min_cycle;Max_cycle;Signal;HPM_P1;HPM_P2
2021/01/27 00:00:57;;;;;;;23.02;21.70;;;2.00;81.70;;;;;;5033463;28;20193;-77
2021/01/27 00:03:24;;;;;;;23.80;22.35;;;2.00;81.80;;;;;;5033413;28;20276;-77
2021/01/27 00:05:51;;;;;;;25.52;23.77;;;2.00;81.50;;;;;;5033182;28;20198;-77
2021/01/27 00:08:18;;;;;;;27.08;25.38;;;2.10;81.00;;;;;;5032808;28;20774;-77
2021/01/27 00:10:45;;;;;;;25.10;23.40;;;2.00;81.40;;;;;;5033096;28;20299;-77
2021/01/27 00:13:14;;;;;;;24.23;22.70;;;2.10;80.80;;;;;;5032879;28;20728;-77
2021/01/27 00:15:42;;;;;;;23.52;22.13;;;2.20;80.60;;;;;;5032813;28;20248;-77
2021/01/27 00:18:12;;;;;;;122.32;31.13;;;2.20;80.40;;;;;;5032888;28;20217;-77
2021/01/27 00:20:39;;;;;;;22.10;20.85;;;2.20;84.90;;;;;;5033017;28;20205;-77
2021/01/27 00:23:06;;;;;;;22.83;21.40;;;2.10;85.00;;;;;;5032900;28;20721;-77
2021/01/27 00:25:36;;;;;;;23.42;21.95;;;2.10;87.50;;;;;;5032845;28;20251;-77
2021/01/27 00:28:04;;;;;;;22.75;21.45;;;2.20;84.80;;;;;;5032787;28;20743;-77
2021/01/27 00:30:34;;;;;;;23.90;22.50;;;2.30;81.90;;;;;;5032880;28;20677;-77
2021/01/27 00:33:01;;;;;;;24.42;22.77;;;2.30;81.70;;;;;;5032939;28;20224;-77
2021/01/27 00:35:29;;;;;;;23.80;22.17;;;2.20;82.20;;;;;;5032885;28;20304;-78
2021/01/27 00:37:57;;;;;;;23.58;22.17;;;2.10;83.10;;;;;;5037048;28;20293;-77
2021/01/27 00:40:24;;;;;;;24.98;23.35;;;2.20;81.70;;;;;;5033985;28;20193;-77
2021/01/27 00:42:50;;;;;;;24.05;22.63;;;2.10;80.90;;;;;;5032864;28;20283;-77
2021/01/27 00:45:18;;;;;;;24.55;23.08;;;2.10;80.40;;;;;;5032739;28;20289;-77
2021/01/27 00:47:46;;;;;;;23.08;21.50;;;2.10;80.40;;;;;;5032564;28;20304;-77
2021/01/27 00:50:14;;;;;;;24.10;22.50;;;2.10;80.40;;;;;;5032698;28;20288;-77
2021/01/27 00:52:41;;;;;;;23.15;21.55;;;2.00;83.80;;;;;;5032518;28;20205;-77
2021/01/27 00:55:12;;;;;;;24.10;22.50;;;2.00;86.90;;;;;;5032544;28;20201;-77
2021/01/27 00:57:39;;;;;;;23.83;22.42;;;2.20;82.80;;;;;;5032439;28;20308;-77
2021/01/27 01:00:10;;;;;;;23.20;21.70;;;2.20;82.10;;;;;;5032620;28;20296;-77
2021/01/27 01:02:39;;;;;;;22.95;21.35;;;2.20;82.10;;;;;;5032684;28;21299;-77
2021/01/27 01:05:09;;;;;;;23.77;22.30;;;2.20;82.90;;;;;;5032647;28;20564;-77
2021/01/27 01:07:36;;;;;;;24.15;22.85;;;2.20;81.70;;;;;;5036128;28;20698;-77
2021/01/27 01:10:05;;;;;;;25.05;23.55;;;2.20;81.50;;;;;;5036589;28;20246;-77
2021/01/27 01:12:31;;;;;;;26.00;23.73;;;2.20;81.30;;;;;;5036291;28;20201;-77
2021/01/27 01:14:58;;;;;;;25.95;24.17;;;2.10;81.30;;;;;;5036508;28;20204;-77
2021/01/27 01:17:25;;;;;;;24.33;22.73;;;2.20;81.60;;;;;;5036119;28;20594;-77
2021/01/27 01:19:51;;;;;;;24.58;23.08;;;2.30;81.00;;;;;;5036268;28;20197;-77
2021/01/27 01:22:19;;;;;;;25.08;23.55;;;2.20;81.20;;;;;;5036300;28;20681;-77
2021/01/27 01:24:45;;;;;;;25.67;23.98;;;2.20;82.70;;;;;;5036392;28;20686;-77
2021/01/27 01:27:11;;;;;;;25.52;23.80;;;2.30;82.10;;;;;;5036053;28;20257;-77
2021/01/27 01:29:38;;;;;;;25.65;23.63;;;2.30;82.30;;;;;;5036221;28;20667;-77
2021/01/27 01:32:05;;;;;;;24.25;22.65;;;2.30;81.70;;;;;;5036046;28;20262;-77
2021/01/27 01:34:31;;;;;;;24.13;22.58;;;2.30;81.50;;;;;;5036137;28;20282;-77
2021/01/27 01:36:58;;;;;;;24.77;22.85;;;2.30;81.50;;;;;;5035726;28;20221;-77
2021/01/27 01:39:25;;;;;;;25.17;23.33;;;2.30;82.80;;;;;;5035816;28;20193;-77
2021/01/27 01:41:52;;;;;;;24.25;22.75;;;2.30;81.90;;;;;;5035920;28;20199;-77
2021/01/27 01:44:18;;;;;;;25.60;23.85;;;2.30;81.80;;;;;;5036014;28;20227;-77
2021/01/27 01:46:45;;;;;;;25.05;23.50;;;2.20;81.70;;;;;;5035387;28;20213;-77
2021/01/27 01:49:13;;;;;;;25.58;23.75;;;2.00;82.30;;;;;;5035848;28;20205;-77
2021/01/27 01:51:41;;;;;;;25.48;23.83;;;2.10;82.30;;;;;;5035666;28;20248;-77
2021/01/27 01:54:14;;;;;;;24.98;23.45;;;2.10;81.90;;;;;;5036002;28;20197;-77
2021/01/27 01:56:49;;;;;;;25.88;23.77;;;2.10;81.80;;;;;;5035378;28;20320;-77
2021/01/27 01:59:15;;;;;;;23.73;22.33;;;2.10;82.60;;;;;;5035599;28;20243;-77
2021/01/27 02:01:46;;;;;;;24.45;22.63;;;2.10;85.10;;;;;;5035713;28;20288;-77
2021/01/27 02:04:13;;;;;;;40.10;25.70;;;2.00;85.30;;;;;;5035645;28;20249;-77
2021/01/27 02:06:39;;;;;;;24.55;23.05;;;2.10;88.10;;;;;;5036940;28;20535;-77
2021/01/27 02:09:07;;;;;;;25.05;23.25;;;2.10;85.40;;;;;;5037757;28;20685;-77
2021/01/27 02:11:52;;;;;;;585.67;78.88;;;2.10;84.10;;;;;;5036374;28;20223;-77
2021/01/27 02:14:30;;;;;;;24.80;23.10;;;2.20;83.90;;;;;;5035479;28;20203;-77
2021/01/27 02:17:02;;;;;;;23.80;22.40;;;2.20;83.70;;;;;;5034117;28;20312;-77
2021/01/27 02:20:24;;;;;;;25.10;23.30;;;2.20;82.90;;;;;;5035122;28;20726;-77
2021/01/27 02:23:32;;;;;;;24.30;22.70;;;2.20;82.10;;;;;;5035236;28;20243;-77
2021/01/27 02:26:09;;;;;;;23.17;21.58;;;2.20;81.80;;;;;;5034994;28;20212;-77
2021/01/27 02:28:50;;;;;;;24.38;22.80;;;2.10;81.60;;;;;;5034979;28;20714;-77
2021/01/27 02:31:24;;;;;;;24.55;22.90;;;2.20;81.30;;;;;;5035371;28;20736;-77
2021/01/27 02:34:13;;;;;;;24.02;22.52;;;2.20;81.30;;;;;;5040842;28;20207;-77
2021/01/27 02:36:46;;;;;;;24.35;22.85;;;2.10;81.40;;;;;;5034896;28;20244;-77
2021/01/27 02:39:18;;;;;;;24.67;23.20;;;2.00;81.60;;;;;;5035159;28;20585;-77
2021/01/27 02:42:02;;;;;;;54.58;26.70;;;2.00;82.20;;;;;;5034938;28;20675;-77
2021/01/27 02:44:36;;;;;;;63.90;28.15;;;2.00;82.70;;;;;;5034852;28;20202;-77
2021/01/27 02:47:13;;;;;;;25.40;23.83;;;2.00;82.80;;;;;;5034464;28;20224;-77
2021/01/27 02:49:44;;;;;;;25.33;23.42;;;1.90;83.40;;;;;;5034731;28;20204;-77
2021/01/27 02:52:14;;;;;;;25.40;23.35;;;2.00;83.20;;;;;;5034757;28;20205;-77
2021/01/27 02:54:46;;;;;;;25.73;24.13;;;1.90;85.50;;;;;;5034697;28;20267;-77
2021/01/27 02:57:18;;;;;;;25.55;23.92;;;1.80;84.50;;;;;;5034259;28;20585;-77
2021/01/27 02:59:51;;;;;;;25.73;24.02;;;1.90;84.00;;;;;;5034523;28;20284;-77
2021/01/27 03:02:21;;;;;;;25.35;23.75;;;1.90;83.10;;;;;;5034651;28;20228;-77
2021/01/27 03:04:56;;;;;;;24.58;23.05;;;1.80;83.10;;;;;;5034492;28;20663;-77
2021/01/27 03:07:24;;;;;;;24.70;23.10;;;1.80;84.60;;;;;;5033973;28;20240;-77
2021/01/27 03:09:57;;;;;;;26.05;24.30;;;1.90;84.70;;;;;;5034296;28;20231;-77
2021/01/27 03:12:24;;;;;;;24.23;22.20;;;1.90;84.40;;;;;;5034036;28;20288;-77
2021/01/27 03:14:50;;;;;;;691.15;110.50;;;1.90;85.70;;;;;;5034300;28;20205;-77
2021/01/27 03:17:20;;;;;;;23.40;21.45;;;1.80;93.50;;;;;;5033812;28;20316;-77
2021/01/27 03:19:54;;;;;;;22.70;21.30;;;1.80;90.60;;;;;;5034122;28;20609;-77
2021/01/27 03:22:24;;;;;;;23.00;21.60;;;1.90;88.30;;;;;;5033992;28;20200;-77
2021/01/27 03:24:54;;;;;;;24.92;23.00;;;1.80;88.20;;;;;;5034376;28;20229;-77
2021/01/27 03:27:23;;;;;;;24.38;22.52;;;2.00;87.60;;;;;;5033763;28;20240;-77
2021/01/27 03:29:52;;;;;;;25.02;23.45;;;1.90;86.10;;;;;;5033888;28;20207;-77
2021/01/27 03:32:28;;;;;;;24.17;22.58;;;2.00;85.90;;;;;;5033988;28;20193;-77
2021/01/27 03:35:02;;;;;;;25.95;23.77;;;2.00;85.10;;;;;;5033820;28;20208;-77
2021/01/27 03:37:37;;;;;;;24.13;22.63;;;2.00;84.30;;;;;;5033523;28;20231;-77
2021/01/27 03:40:08;;;;;;;25.33;23.63;;;1.90;84.10;;;;;;5033565;28;20205;-77
2021/01/27 03:42:42;;;;;;;25.00;23.38;;;1.90;83.90;;;;;;5033751;28;20220;-77
2021/01/27 03:45:11;;;;;;;24.50;23.05;;;1.90;83.00;;;;;;5033637;28;20207;-77
2021/01/27 03:47:43;;;;;;;24.08;22.67;;;1.90;83.40;;;;;;5033276;28;20214;-77
2021/01/27 03:50:14;;;;;;;25.30;23.60;;;1.90;84.50;;;;;;5033608;28;20212;-77
2021/01/27 03:52:45;;;;;;;23.92;22.33;;;2.00;84.90;;;;;;5033473;28;20252;-77
2021/01/27 03:55:20;;;;;;;24.13;22.65;;;1.90;86.50;;;;;;5033902;28;20288;-77
2021/01/27 03:57:53;;;;;;;71.72;28.75;;;2.00;86.20;;;;;;5033338;28;20221;-77
2021/01/27 04:00:21;;;;;;;24.20;22.80;;;2.00;85.40;;;;;;5033374;28;20235;-77
2021/01/27 04:03:00;;;;;;;24.55;22.92;;;1.90;88.40;;;;;;5033404;28;20197;-77
2021/01/27 04:05:26;;;;;;;23.83;22.42;;;1.90;87.00;;;;;;5033307;28;20197;-77
2021/01/27 04:07:54;;;;;;;23.92;22.38;;;1.90;90.80;;;;;;5032807;28;20248;-77
2021/01/27 04:10:20;;;;;;;24.65;22.90;;;1.90;87.60;;;;;;5033020;28;20681;-77
2021/01/27 04:12:46;;;;;;;26.60;24.80;;;1.90;91.00;;;;;;5032888;28;20289;-77
2021/01/27 04:15:14;;;;;;;23.63;22.23;;;2.00;88.30;;;;;;5033217;28;20193;-77
2021/01/27 04:17:40;;;;;;;23.10;21.50;;;2.00;85.60;;;;;;5032881;28;20221;-77
2021/01/27 04:20:07;;;;;;;23.65;22.20;;;2.00;85.40;;;;;;5033104;28;20201;-77
2021/01/27 04:22:34;;;;;;;25.30;23.60;;;2.00;85.80;;;;;;5033356;28;20204;-77
2021/01/27 04:25:01;;;;;;;25.85;24.27;;;2.00;84.70;;;;;;5033065;28;20205;-77
2021/01/27 04:27:28;;;;;;;25.00;23.40;;;2.00;83.70;;;;;;5033223;28;20244;-77
2021/01/27 04:29:54;;;;;;;24.70;22.90;;;2.00;83.00;;;;;;5038959;28;20198;-77
2021/01/27 04:32:20;;;;;;;25.10;23.45;;;2.00;83.30;;;;;;5033037;28;20197;-77
2021/01/27 04:34:47;;;;;;;25.90;24.13;;;2.00;85.10;;;;;;5033017;28;20259;-77
2021/01/27 04:37:14;;;;;;;24.30;22.70;;;2.10;85.00;;;;;;5032696;28;20271;-77
2021/01/27 04:39:40;;;;;;;23.27;21.88;;;2.10;83.30;;;;;;5032550;28;20197;-77
2021/01/27 04:42:10;;;;;;;23.27;21.85;;;2.20;82.60;;;;;;5032496;28;20199;-77
2021/01/27 04:44:36;;;;;;;23.70;22.23;;;2.20;86.30;;;;;;5032725;28;20212;-77
2021/01/27 04:47:10;;;;;;;24.77;22.83;;;2.20;82.70;;;;;;5032494;28;20267;-77
2021/01/27 04:49:41;;;;;;;22.92;21.52;;;2.10;82.10;;;;;;5032796;28;20201;-77
2021/01/27 04:52:16;;;;;;;24.35;22.73;;;2.10;82.50;;;;;;5032485;28;20304;-77
2021/01/27 04:55:06;;;;;;;24.85;23.15;;;2.20;81.70;;;;;;5032767;28;20201;-77
2021/01/27 04:57:57;;;;;;;199.65;39.13;;;2.20;81.30;;;;;;5032325;28;20311;-77
2021/01/27 05:00:44;;;;;;;23.17;21.83;;;2.20;87.70;;;;;;5032659;28;20201;-77
2021/01/27 05:03:46;;;;;;;23.67;22.27;;;2.20;86.60;;;;;;5032727;28;20292;-77
2021/01/27 05:06:16;;;;;;;193.85;36.65;;;2.20;86.60;;;;;;5022252;28;20266;-77
2021/01/27 05:08:49;;;;;;;47.45;25.05;;;2.20;87.80;;;;;;5032181;28;20224;-77
2021/01/27 05:11:17;;;;;;;23.58;22.17;;;2.30;83.40;;;;;;5032725;28;20210;-77
2021/01/27 05:13:49;;;;;;;26.20;24.60;;;2.20;86.80;;;;;;5032335;28;20671;-77
2021/01/27 05:16:19;;;;;;;23.30;21.90;;;2.30;84.80;;;;;;5032568;28;20367;-77
2021/01/27 05:18:48;;;;;;;23.52;22.13;;;2.30;83.30;;;;;;5035184;28;20232;-77
2021/01/27 05:21:21;;;;;;;25.35;23.63;;;2.30;82.70;;;;;;5034380;28;20193;-77
2021/01/27 05:23:48;;;;;;;25.45;24.20;;;2.40;81.50;;;;;;5032665;28;20201;-77
2021/01/27 05:26:17;;;;;;;24.17;22.70;;;2.50;80.20;;;;;;5032334;28;20193;-77
2021/01/27 05:28:48;;;;;;;25.92;24.30;;;2.50;79.10;;;;;;5032126;28;20278;-77
2021/01/27 05:31:15;;;;;;;24.65;23.20;;;2.50;78.40;;;;;;5032624;28;20198;-77
2021/01/27 05:33:44;;;;;;;25.27;23.98;;;2.50;78.50;;;;;;5032390;28;20193;-77
2021/01/27 05:36:15;;;;;;;24.30;22.73;;;2.50;77.80;;;;;;5032126;28;20643;-77
2021/01/27 05:38:41;;;;;;;24.75;23.30;;;2.60;77.80;;;;;;5032552;28;20217;-77
2021/01/27 05:41:14;;;;;;;24.65;23.05;;;2.60;77.30;;;;;;5032375;28;20205;-77
2021/01/27 05:43:41;;;;;;;22.88;21.52;;;2.60;77.50;;;;;;5032480;28;20197;-77
2021/01/27 05:46:15;;;;;;;25.13;23.73;;;2.60;77.40;;;;;;5031920;28;20197;-77
2021/01/27 05:48:44;;;;;;;25.15;23.00;;;2.60;77.60;;;;;;5032139;28;20304;-77
2021/01/27 05:51:15;;;;;;;25.58;23.98;;;2.60;77.70;;;;;;5032085;28;20215;-77
2021/01/27 05:53:42;;;;;;;26.65;24.85;;;2.60;77.50;;;;;;5034859;28;20201;-77
2021/01/27 05:56:15;;;;;;;24.90;23.15;;;2.60;77.50;;;;;;5035405;28;20218;-77
2021/01/27 05:58:47;;;;;;;24.17;22.67;;;2.60;77.60;;;;;;5035687;28;20244;-77
2021/01/27 06:01:28;;;;;;;24.27;23.15;;;2.60;77.30;;;;;;5035802;28;20247;-77
2021/01/27 06:04:00;;;;;;;25.15;23.65;;;2.60;79.20;;;;;;5035830;28;20280;-77
2021/01/27 06:06:29;;;;;;;26.50;24.98;;;2.50;79.10;;;;;;5035399;28;20553;-77
2021/01/27 06:08:57;;;;;;;24.25;22.80;;;2.50;77.70;;;;;;5035249;28;20598;-77
2021/01/27 06:11:25;;;;;;;25.33;23.70;;;2.60;77.40;;;;;;5035611;28;20288;-77
2021/01/27 06:14:06;;;;;;;24.05;22.50;;;2.50;77.20;;;;;;5035379;28;20197;-77
2021/01/27 06:16:41;;;;;;;23.67;22.35;;;2.50;77.20;;;;;;5035096;28;20217;-77
2021/01/27 06:19:12;;;;;;;23.52;22.15;;;2.60;76.90;;;;;;5035458;28;20626;-77
2021/01/27 06:22:00;;;;;;;24.23;22.83;;;2.60;76.70;;;;;;5035287;28;20201;-77
2021/01/27 06:24:42;;;;;;;27.45;25.50;;;2.60;76.20;;;;;;5036241;28;20198;-77
2021/01/27 06:27:32;;;;;;;24.13;22.60;;;2.60;75.80;;;;;;5037009;28;20221;-77
2021/01/27 06:30:41;;;;;;;23.50;22.20;;;2.60;77.50;;;;;;5038403;28;20287;-77
2021/01/27 06:33:36;;;;;;;23.20;21.80;;;2.70;77.80;;;;;;5035266;28;20201;-77
2021/01/27 06:36:22;;;;;;;23.77;22.27;;;2.60;76.50;;;;;;5034926;28;20706;-77
2021/01/27 06:39:13;;;;;;;23.20;21.70;;;2.70;76.30;;;;;;5035161;28;20205;-77
2021/01/27 06:41:56;;;;;;;24.23;22.48;;;2.70;76.40;;;;;;5033949;28;20204;-77
2021/01/27 06:44:44;;;;;;;23.77;22.33;;;2.70;75.90;;;;;;5039139;28;20193;-77
2021/01/27 06:47:23;;;;;;;24.15;22.70;;;2.80;75.90;;;;;;5038653;28;20259;-78
2021/01/27 06:50:10;;;;;;;24.63;22.90;;;2.70;76.40;;;;;;5039533;28;20201;-77
2021/01/27 06:53:19;;;;;;;23.58;22.08;;;2.70;76.90;;;;;;5036617;28;20217;-77
2021/01/27 06:56:02;;;;;;;23.60;22.00;;;2.60;76.40;;;;;;5038260;28;20666;-77
2021/01/27 06:58:48;;;;;;;23.30;22.00;;;2.70;76.20;;;;;;5036831;28;20315;-77
2021/01/27 07:01:35;;;;;;;25.40;23.80;;;2.70;75.90;;;;;;5038643;28;20203;-77
2021/01/27 07:04:25;;;;;;;24.27;22.77;;;2.60;77.80;;;;;;5037645;28;20205;-77
2021/01/27 07:07:11;;;;;;;24.30;22.90;;;2.70;76.70;;;;;;5035000;28;20213;-77
2021/01/27 07:10:16;;;;;;;24.17;22.77;;;2.70;76.40;;;;;;5036581;28;20324;-77
2021/01/27 07:12:47;;;;;;;24.45;23.08;;;2.60;76.30;;;;;;5037204;28;20265;-77
2021/01/27 07:15:26;;;;;;;25.70;24.20;;;2.60;76.60;;;;;;5037675;28;20216;-77
2021/01/27 07:18:30;;;;;;;25.65;23.90;;;2.70;77.40;;;;;;5035193;28;20587;-77
2021/01/27 07:21:01;;;;;;;24.60;23.10;;;2.70;77.50;;;;;;5034873;28;20220;-77
2021/01/27 07:23:41;;;;;;;24.67;23.08;;;2.80;76.00;;;;;;5034673;28;20201;-77
2021/01/27 07:26:16;;;;;;;23.58;21.90;;;2.90;75.60;;;;;;5034138;28;20197;-77
2021/01/27 07:28:52;;;;;;;23.48;22.17;;;2.80;75.50;;;;;;5034160;28;20228;-77
2021/01/27 07:31:24;;;;;;;24.80;23.40;;;2.80;77.40;;;;;;5034409;28;20208;-77
2021/01/27 07:33:54;;;;;;;24.27;22.70;;;2.90;77.30;;;;;;5034317;28;20206;-77
2021/01/27 07:36:37;;;;;;;23.63;22.23;;;2.90;76.60;;;;;;5034059;28;20229;-77
2021/01/27 07:39:07;;;;;;;26.58;25.00;;;3.00;76.20;;;;;;5033773;28;20193;-77
2021/01/27 07:41:45;;;;;;;25.05;23.38;;;3.00;76.20;;;;;;5033937;28;20197;-77
2021/01/27 07:44:16;;;;;;;27.15;25.33;;;2.90;76.80;;;;;;5033870;28;20675;-77
2021/01/27 07:46:48;;;;;;;25.90;24.30;;;2.90;77.50;;;;;;5033422;28;20224;-77
2021/01/27 07:49:19;;;;;;;26.88;25.10;;;2.90;76.70;;;;;;5033576;28;20205;-77
2021/01/27 07:51:54;;;;;;;26.38;24.58;;;2.90;76.90;;;;;;5033894;28;20292;-77
2021/01/27 07:54:27;;;;;;;28.20;26.13;;;3.00;77.40;;;;;;5034027;28;20236;-77
2021/01/27 07:56:58;;;;;;;24.23;22.63;;;2.90;79.40;;;;;;5033488;28;20221;-77
2021/01/27 07:59:30;;;;;;;25.30;23.65;;;3.00;79.00;;;;;;5033604;28;20540;-78
2021/01/27 08:01:59;;;;;;;24.85;23.35;;;2.90;83.60;;;;;;5033586;28;20209;-77
2021/01/27 08:04:34;;;;;;;21.50;20.20;;;2.90;83.20;;;;;;5033839;28;20193;-77
2021/01/27 08:07:01;;;;;;;22.73;21.52;;;2.90;81.90;;;;;;5033081;28;20212;-77
2021/01/27 08:09:32;;;;;;;23.77;22.45;;;3.10;81.80;;;;;;5033528;28;20201;-77
2021/01/27 08:12:15;;;;;;;23.55;21.40;;;3.10;83.90;;;;;;5033588;28;20197;-77
2021/01/27 08:14:59;;;;;;;22.85;21.55;;;3.10;86.30;;;;;;5033149;28;20227;-77
2021/01/27 08:17:47;;;;;;;65.70;25.05;;;2.90;87.80;;;;;;5033818;28;20225;-77
2021/01/27 08:20:20;;;;;;;21.23;19.98;;;2.90;88.30;;;;;;5037855;28;20201;-77
2021/01/27 08:22:51;;;;;;;22.02;20.83;;;3.00;90.50;;;;;;5037451;28;20196;-77
2021/01/27 08:25:51;;;;;;;23.45;22.02;;;3.00;86.10;;;;;;5035713;28;20276;-77
2021/01/27 08:28:22;;;;;;;21.65;20.45;;;3.10;86.40;;;;;;5036533;28;20213;-77
2021/01/27 08:31:17;;;;;;;22.83;21.50;;;3.10;84.00;;;;;;5036903;28;20575;-77
2021/01/27 08:33:53;;;;;;;23.00;21.70;;;3.10;84.10;;;;;;5034015;28;20666;-77
2021/01/27 08:36:22;;;;;;;21.85;20.63;;;3.20;83.60;;;;;;5033535;28;20259;-77
2021/01/27 08:39:06;;;;;;;22.40;21.10;;;3.10;84.50;;;;;;5033777;28;20197;-77
2021/01/27 08:41:53;;;;;;;1353.95;219.07;;;3.10;85.50;;;;;;5033237;28;20208;-77
2021/01/27 08:44:30;;;;;;;21.83;20.67;;;3.10;87.90;;;;;;5034462;28;20193;-77
2021/01/27 08:46:58;;;;;;;888.08;114.45;;;3.10;86.50;;;;;;5033338;28;20227;-77
2021/01/27 08:49:51;;;;;;;27.00;19.58;;;3.10;86.00;;;;;;5032904;28;20201;-77
2021/01/27 08:52:42;;;;;;;169.82;36.83;;;3.10;90.40;;;;;;5032656;28;20208;-77
2021/01/27 08:55:44;;;;;;;21.73;20.52;;;3.10;90.50;;;;;;5018220;28;20201;-77
2021/01/27 08:58:22;;;;;;;20.92;19.70;;;3.20;87.30;;;;;;5001588;28;20232;-77
2021/01/27 09:00:50;;;;;;;20.85;19.65;;;3.20;86.00;;;;;;5032644;28;20663;-77
2021/01/27 09:03:59;;;;;;;22.75;21.30;;;3.20;84.60;;;;;;5032638;28;20233;-77
2021/01/27 09:06:34;;;;;;;22.25;20.90;;;3.10;84.40;;;;;;5032276;28;20536;-77
2021/01/27 09:09:16;;;;;;;21.73;20.48;;;3.10;83.80;;;;;;5032386;28;20200;-77
2021/01/27 09:11:43;;;;;;;22.58;21.30;;;3.10;84.90;;;;;;5032513;28;20201;-77
2021/01/27 09:14:12;;;;;;;36.22;21.55;;;3.00;85.20;;;;;;5032388;28;20747;-77
2021/01/27 09:16:40;;;;;;;21.80;20.50;;;3.00;86.70;;;;;;5032106;28;20278;-77
2021/01/27 09:19:13;;;;;;;23.13;21.60;;;3.10;85.90;;;;;;5032465;28;20201;-77
2021/01/27 09:21:40;;;;;;;23.58;21.98;;;3.10;85.40;;;;;;5032505;28;20233;-77
2021/01/27 09:24:10;;;;;;;24.65;23.05;;;3.10;85.60;;;;;;5032410;28;20197;-77
2021/01/27 09:26:41;;;;;;;22.17;20.77;;;3.20;84.00;;;;;;5033369;28;20958;-77
2021/01/27 09:29:12;;;;;;;23.60;22.17;;;3.20;84.80;;;;;;5036243;28;20736;-77
2021/01/27 09:31:38;;;;;;;262.83;41.53;;;3.10;85.00;;;;;;5036375;28;20255;-77
2021/01/27 09:34:14;;;;;;;500.75;74.25;;;3.00;90.50;;;;;;5036309;28;20204;-77
2021/01/27 09:36:42;;;;;;;44.20;25.92;;;3.00;90.00;;;;;;5035973;28;20270;-77
2021/01/27 09:39:10;;;;;;;22.45;21.05;;;3.00;87.50;;;;;;5036263;28;20201;-77
2021/01/27 09:41:37;;;;;;;38.83;22.95;;;3.00;86.90;;;;;;5036124;28;20258;-77
2021/01/27 09:44:04;;;;;;;22.40;20.90;;;3.00;86.50;;;;;;5036056;28;20198;-77
2021/01/27 09:46:34;;;;;;;23.02;21.60;;;3.00;90.20;;;;;;5035822;28;20682;-77
2021/01/27 09:49:05;;;;;;;65.07;24.38;;;3.00;87.70;;;;;;5035958;28;20284;-77
2021/01/27 09:51:32;;;;;;;22.13;20.73;;;3.10;87.60;;;;;;5035933;28;20728;-77
2021/01/27 09:54:00;;;;;;;21.30;20.15;;;3.00;87.50;;;;;;5035919;28;20289;-77
2021/01/27 09:56:29;;;;;;;207.05;40.70;;;3.10;86.40;;;;;;5035449;28;20228;-77
2021/01/27 09:58:56;;;;;;;20.30;18.98;;;3.00;87.50;;;;;;5035788;28;20654;-77
2021/01/27 10:01:26;;;;;;;36.65;21.42;;;3.00;90.70;;;;;;5035719;28;20200;-77
2021/01/27 10:03:54;;;;;;;21.05;19.70;;;3.10;89.70;;;;;;5035670;28;20197;-77
2021/01/27 10:06:36;;;;;;;1999.90;500.35;;;3.20;89.20;;;;;;5035558;28;20259;-77
2021/01/27 10:09:08;;;;;;;18.50;17.40;;;3.10;94.10;;;;;;5035308;28;20201;-77
2021/01/27 10:11:36;;;;;;;19.20;17.98;;;2.90;94.70;;;;;;5035769;28;20197;-77
2021/01/27 10:14:05;;;;;;;20.30;18.85;;;2.90;91.10;;;;;;5035363;28;20198;-77
2021/01/27 10:16:32;;;;;;;22.95;21.33;;;2.80;89.40;;;;;;5036824;28;20237;-77
2021/01/27 10:19:06;;;;;;;21.17;20.08;;;2.90;88.90;;;;;;5036011;28;20201;-77
2021/01/27 10:21:43;;;;;;;423.15;62.33;;;2.90;87.50;;;;;;5035332;28;20638;-77
2021/01/27 10:24:10;;;;;;;20.42;18.92;;;3.10;89.80;;;;;;5035357;28;20255;-77
2021/01/27 10:26:39;;;;;;;1963.45;339.55;;;3.10;91.90;;;;;;5034979;28;20233;-77
2021/01/27 10:29:21;;;;;;;19.55;18.35;;;3.30;93.90;;;;;;5035097;28;20208;-77
2021/01/27 10:31:49;;;;;;;19.15;18.05;;;3.40;92.70;;;;;;5035089;28;20259;-77
2021/01/27 10:34:37;;;;;;;19.70;18.50;;;3.50;91.80;;;;;;5035261;28;20571;-77
2021/01/27 10:37:03;;;;;;;18.60;17.48;;;3.50;90.60;;;;;;5034736;28;20232;-77
2021/01/27 10:39:30;;;;;;;20.73;19.52;;;3.60;90.00;;;;;;5034286;28;20270;-77
2021/01/27 10:42:21;;;;;;;20.45;18.70;;;3.60;89.40;;;;;;5034892;28;20212;-77
2021/01/27 10:45:29;;;;;;;1211.00;138.15;;;3.70;89.20;;;;;;5035098;28;20197;-77
2021/01/27 10:48:01;;;;;;;76.82;26.58;;;3.80;90.80;;;;;;5034855;28;20217;-77
2021/01/27 10:50:29;;;;;;;21.65;19.98;;;4.00;85.80;;;;;;5034668;28;20201;-77
2021/01/27 10:52:57;;;;;;;22.27;21.08;;;3.90;86.10;;;;;;5034850;28;20197;-77
2021/01/27 10:55:25;;;;;;;22.05;20.88;;;4.10;83.70;;;;;;5034735;28;20204;-77
2021/01/27 10:58:02;;;;;;;21.90;20.50;;;4.00;83.40;;;;;;5034632;28;20712;-77
2021/01/27 11:00:29;;;;;;;23.48;22.08;;;3.90;83.30;;;;;;5034951;28;20192;-77
2021/01/27 11:02:55;;;;;;;22.52;21.23;;;4.00;83.70;;;;;;5034527;28;20201;-77
2021/01/27 11:05:21;;;;;;;21.70;20.38;;;3.90;83.90;;;;;;5034340;28;20734;-77
2021/01/27 11:07:49;;;;;;;21.85;20.65;;;4.00;83.30;;;;;;5034098;28;20260;-77
2021/01/27 11:10:15;;;;;;;21.67;20.30;;;4.00;82.20;;;;;;5034428;28;20296;-77
2021/01/27 11:12:42;;;;;;;21.40;20.10;;;3.90;83.10;;;;;;5034015;28;20201;-77
2021/01/27 11:15:09;;;;;;;22.95;21.00;;;3.80;83.70;;;;;;5034276;28;20655;-78
2021/01/27 11:17:35;;;;;;;194.80;40.38;;;3.80;84.30;;;;;;5033901;28;20230;-77
2021/01/27 11:20:02;;;;;;;20.65;19.30;;;3.80;85.60;;;;;;5034109;28;20193;-77
2021/01/27 11:22:28;;;;;;;21.77;20.05;;;3.80;88.30;;;;;;5034228;28;20193;-78
2021/01/27 11:24:55;;;;;;;22.70;20.85;;;3.90;84.90;;;;;;5034239;28;20698;-78
2021/01/27 11:27:22;;;;;;;21.67;20.38;;;3.80;88.20;;;;;;5033844;28;20221;-78
2021/01/27 11:29:48;;;;;;;21.45;20.05;;;3.80;85.30;;;;;;5033882;28;20245;-78
2021/01/27 11:32:15;;;;;;;21.23;19.15;;;3.90;86.10;;;;;;5034060;28;20220;-78
2021/01/27 11:34:41;;;;;;;20.30;19.10;;;3.90;87.40;;;;;;5034136;28;20197;-77
2021/01/27 11:37:08;;;;;;;20.00;18.90;;;3.90;89.60;;;;;;5034855;28;20221;-77
2021/01/27 11:39:34;;;;;;;21.08;19.70;;;4.10;86.70;;;;;;5037036;28;20219;-77
2021/01/27 11:42:01;;;;;;;20.10;18.90;;;4.20;83.30;;;;;;5036811;28;20251;-78
2021/01/27 11:44:28;;;;;;;21.33;20.15;;;4.10;83.40;;;;;;5034942;28;20197;-78
2021/01/27 11:46:54;;;;;;;21.75;20.33;;;4.30;82.90;;;;;;5033687;28;20224;-77
2021/01/27 11:49:20;;;;;;;42.45;24.00;;;4.50;82.20;;;;;;5033351;28;20198;-78
2021/01/27 11:51:47;;;;;;;22.48;20.85;;;4.60;81.50;;;;;;5033201;28;20259;-78
2021/01/27 11:54:13;;;;;;;22.17;20.48;;;4.60;81.40;;;;;;5033609;28;20200;-78
2021/01/27 11:56:40;;;;;;;22.33;21.02;;;4.60;83.60;;;;;;5033192;28;20225;-78
2021/01/27 11:59:08;;;;;;;21.75;20.48;;;4.60;81.50;;;;;;5033494;28;20255;-78
2021/01/27 12:01:35;;;;;;;22.60;21.30;;;4.70;79.90;;;;;;5033525;28;20725;-77
2021/01/27 12:04:02;;;;;;;22.30;21.13;;;4.60;79.30;;;;;;5033536;28;20202;-78
2021/01/27 12:06:29;;;;;;;21.40;20.25;;;4.70;80.80;;;;;;5033318;28;20212;-78
2021/01/27 12:08:55;;;;;;;22.75;21.55;;;4.70;79.30;;;;;;5033206;28;20265;-78
2021/01/27 12:11:21;;;;;;;21.48;20.17;;;4.60;79.50;;;;;;5037627;28;20207;-77
2021/01/27 12:13:48;;;;;;;22.48;21.27;;;4.70;79.00;;;;;;5039953;28;20658;-77
2021/01/27 12:16:15;;;;;;;20.75;19.67;;;4.70;79.20;;;;;;5033325;28;20205;-77
2021/01/27 12:18:43;;;;;;;22.88;21.48;;;4.60;79.10;;;;;;5033159;28;20591;-77
2021/01/27 12:21:09;;;;;;;21.58;20.10;;;4.50;80.70;;;;;;5033515;28;20200;-77
2021/01/27 12:23:35;;;;;;;22.55;21.05;;;4.50;79.60;;;;;;5033387;28;20670;-77
2021/01/27 12:26:02;;;;;;;21.50;20.40;;;4.50;79.60;;;;;;5032994;28;20206;-77
2021/01/27 12:28:29;;;;;;;22.90;21.50;;;4.60;80.80;;;;;;5033104;28;20223;-77
2021/01/27 12:30:55;;;;;;;22.60;20.95;;;4.60;79.90;;;;;;5033195;28;20204;-77
2021/01/27 12:33:22;;;;;;;22.42;21.13;;;4.80;79.70;;;;;;5033067;28;20201;-77
2021/01/27 12:35:49;;;;;;;20.27;19.27;;;4.90;79.90;;;;;;5032873;28;20252;-77
2021/01/27 12:38:15;;;;;;;21.50;20.23;;;5.00;78.70;;;;;;5032831;28;20593;-77
2021/01/27 12:40:42;;;;;;;24.02;22.42;;;5.00;78.90;;;;;;5033028;28;20218;-77
2021/01/27 12:43:08;;;;;;;23.38;22.15;;;4.90;78.10;;;;;;5032812;28;20204;-77
2021/01/27 12:45:34;;;;;;;21.98;20.88;;;4.80;79.00;;;;;;5032797;28;20197;-77
2021/01/27 12:48:01;;;;;;;21.30;20.20;;;4.80;78.90;;;;;;5032705;28;20737;-77
2021/01/27 12:50:28;;;;;;;22.88;21.25;;;4.80;79.60;;;;;;5032771;28;20678;-77
2021/01/27 12:52:54;;;;;;;23.42;21.98;;;4.70;81.00;;;;;;5032830;28;20204;-77
2021/01/27 12:55:22;;;;;;;24.33;22.83;;;4.60;82.20;;;;;;5032608;28;20193;-77
2021/01/27 12:57:50;;;;;;;20.95;19.65;;;4.80;81.30;;;;;;5032413;28;20257;-77
2021/01/27 13:00:19;;;;;;;22.15;20.80;;;4.90;80.80;;;;;;5032643;28;20207;-77
2021/01/27 13:02:46;;;;;;;23.50;22.10;;;5.00;81.20;;;;;;5035839;28;20197;-77